createdAt,value
2018-01-22T09:31:31.539Z,12.20
2018-01-22T09:33:59.024Z,11.50
2018-01-22T09:36:27.330Z,9.80
2018-01-22T09:38:54.797Z,9.70
2018-01-22T09:41:22.366Z,9.90
2018-01-22T09:43:49.844Z,13.00
2018-01-22T09:46:17.348Z,13.10
2018-01-22T09:48:45.628Z,13.00
2018-01-22T09:51:13.871Z,12.10
2018-01-22T09:53:41.392Z,12.00
2018-01-22T09:56:08.922Z,10.60
2018-01-22T09:58:36.429Z,11.20
2018-01-22T10:01:03.934Z,11.80
2018-01-22T10:06:00.648Z,10.00
2018-01-22T10:08:28.153Z,11.00
2018-01-22T10:10:56.392Z,12.10
2018-01-22T10:13:23.870Z,12.00
2018-01-22T10:15:51.369Z,12.30
2018-01-22T10:18:18.847Z,12.60
2018-01-22T10:20:46.337Z,13.70
2018-01-22T10:23:13.839Z,14.30
2018-01-22T10:25:41.323Z,12.80
2018-01-22T10:28:08.803Z,12.40
2018-01-22T10:30:36.296Z,14.40
2018-01-22T10:33:04.532Z,11.80
2018-01-22T10:35:32.022Z,11.70
2018-01-22T10:40:28.643Z,8.90
2018-01-22T10:42:56.126Z,10.50
2018-01-22T10:45:23.628Z,11.20
2018-01-22T11:47:30.812Z,9.90
2018-01-22T11:49:59.069Z,10.70
2018-01-22T11:52:26.604Z,10.60
2018-01-22T11:54:54.092Z,11.50
2018-01-22T11:57:21.572Z,10.90
2018-01-22T11:59:49.853Z,12.40
2018-01-22T12:02:18.096Z,13.10
2018-01-22T12:04:45.625Z,13.00
2018-01-22T12:07:13.149Z,13.70
2018-01-22T12:09:41.403Z,11.80
2018-01-22T12:14:37.744Z,11.10
2018-01-22T12:17:05.257Z,11.30
2018-01-22T12:19:32.736Z,14.20
2018-01-22T12:22:01.405Z,10.90
2018-01-22T12:24:28.898Z,11.20
2018-01-22T12:26:56.372Z,14.20
2018-01-22T12:29:23.902Z,12.90
2018-01-22T12:31:51.392Z,13.40
2018-01-22T12:34:18.871Z,13.50
2018-01-22T12:36:47.173Z,10.50
2018-01-22T12:39:15.413Z,12.10
2018-01-22T12:41:42.910Z,12.10
2018-01-22T12:44:10.409Z,12.80
2018-01-22T12:46:37.889Z,12.70
2018-01-22T12:49:05.372Z,11.40
2018-01-22T12:51:33.640Z,11.80
2018-01-22T12:54:01.895Z,12.30
2018-01-22T12:56:29.386Z,12.20
2018-01-22T12:58:58.016Z,11.80
2018-01-22T13:01:25.503Z,11.80
2018-01-22T13:03:52.985Z,11.80
2018-01-22T13:06:21.258Z,12.10
2018-01-22T13:08:49.498Z,11.60
2018-01-22T13:11:17.008Z,11.60
2018-01-22T13:13:44.504Z,11.30
2018-01-22T13:16:11.995Z,11.60
2018-01-22T13:18:39.477Z,11.30
2018-01-22T13:21:07.728Z,11.50
2018-01-22T13:23:35.977Z,11.20
2018-01-22T13:26:03.451Z,11.10
2018-01-22T13:28:30.974Z,10.20
2018-01-22T13:30:58.464Z,12.00
2018-01-22T13:33:26.088Z,11.80
2018-01-22T13:35:53.652Z,11.80
2018-01-22T13:38:21.145Z,11.50
2018-01-22T13:40:54.223Z,11.50
2018-01-22T13:43:21.734Z,11.00
2018-01-22T13:45:50.018Z,10.60
2018-01-22T13:48:17.520Z,10.50
2018-01-22T13:50:44.994Z,11.60
2018-01-22T13:58:10.355Z,11.60
2018-01-22T14:03:06.715Z,9.50
2018-01-22T14:05:35.398Z,9.80
2018-01-22T14:08:02.884Z,9.80
2018-01-22T14:10:30.432Z,10.20
2018-01-22T14:12:58.694Z,11.00
2018-01-22T14:15:26.942Z,11.80
2018-01-22T14:17:54.481Z,11.80
2018-01-22T14:20:23.108Z,9.70
2018-01-22T14:22:51.346Z,9.60
2018-01-22T14:25:18.854Z,9.60
2018-01-22T14:27:46.356Z,10.60
2018-01-22T14:30:13.853Z,10.10
2018-01-22T14:32:42.148Z,9.80
2018-01-22T14:35:09.629Z,9.80
2018-01-22T14:37:37.887Z,10.10
2018-01-22T14:40:06.168Z,10.90
2018-01-22T14:42:34.430Z,10.40
2018-01-22T14:51:10.875Z,8.90
2018-01-22T17:40:49.598Z,8.10
2018-01-22T17:43:17.086Z,8.00
2018-01-22T17:45:44.581Z,7.80
2018-01-22T17:48:12.079Z,7.70
2018-01-22T17:50:39.568Z,7.80
2018-01-22T17:53:07.054Z,7.80
2018-01-22T17:55:34.587Z,7.70
2018-01-22T17:58:02.076Z,7.50
2018-01-22T18:00:29.549Z,7.30
2018-01-22T18:02:57.860Z,7.30
2018-01-22T18:05:25.340Z,7.30
2018-01-22T18:07:52.823Z,7.60
2018-01-22T18:10:20.315Z,7.40
2018-01-22T18:12:47.820Z,7.20
2018-01-22T18:15:15.300Z,7.30
2018-01-22T18:17:42.804Z,7.40
2018-01-22T18:20:10.277Z,7.30
2018-01-22T18:22:37.769Z,7.20
2018-01-22T18:25:05.272Z,7.10
2018-01-22T18:27:32.746Z,7.00
2018-01-22T18:30:00.240Z,7.00
2018-01-22T18:32:27.748Z,6.80
2018-01-22T18:34:55.231Z,6.80
2018-01-22T18:37:22.702Z,6.90
2018-01-22T18:39:50.195Z,7.20
2018-01-22T18:42:18.464Z,6.90
2018-01-22T18:44:45.982Z,6.80
2018-01-22T18:47:13.544Z,6.80
2018-01-22T18:49:41.049Z,7.00
2018-01-22T18:52:10.032Z,7.10
2018-01-22T18:54:37.528Z,7.10
2018-01-22T18:57:05.782Z,7.20
2018-01-22T18:59:33.263Z,7.10
2018-01-22T19:02:01.540Z,7.10
2018-01-22T19:04:29.028Z,7.10
2018-01-22T19:06:56.511Z,7.10
2018-01-22T19:09:24.024Z,7.20
2018-01-22T19:11:51.508Z,7.10
2018-01-22T19:14:18.996Z,7.30
2018-01-22T19:16:46.492Z,6.90
2018-01-22T19:19:14.731Z,6.70
2018-01-22T19:21:42.209Z,6.70
2018-01-22T19:24:09.712Z,6.60
2018-01-22T19:26:37.210Z,6.60
2018-01-22T19:29:04.820Z,6.80
2018-01-22T19:31:32.321Z,6.80
2018-01-22T19:33:59.808Z,6.70
2018-01-22T19:36:28.060Z,7.10
2018-01-22T19:38:55.563Z,7.10
2018-01-22T19:41:23.804Z,7.20
2018-01-22T19:43:51.284Z,7.10
2018-01-22T19:46:19.664Z,7.10
2018-01-22T19:48:47.911Z,7.20
2018-01-22T19:51:15.377Z,7.10
2018-01-22T19:53:42.935Z,6.90
2018-01-22T19:56:10.417Z,6.70
2018-01-22T19:58:39.027Z,6.40
2018-01-22T20:01:06.530Z,6.30
2018-01-22T20:03:34.024Z,6.40
2018-01-22T20:06:02.264Z,6.90
2018-01-22T20:08:29.903Z,6.80
2018-01-22T20:10:57.397Z,6.80
2018-01-22T20:13:24.865Z,6.80
2018-01-22T20:15:52.355Z,6.90
2018-01-22T20:18:20.588Z,6.90
2018-01-22T20:20:48.064Z,6.90
2018-01-22T20:23:15.616Z,6.80
2018-01-22T20:25:43.234Z,6.60
2018-01-22T20:28:10.733Z,6.50
2018-01-22T20:30:38.360Z,6.80
2018-01-22T20:33:05.837Z,6.70
2018-01-22T20:35:33.337Z,6.60
2018-01-22T20:38:01.596Z,6.50
2018-01-22T20:40:29.071Z,6.40
2018-01-22T20:42:57.444Z,6.90
2018-01-22T20:45:25.726Z,6.70
2018-01-22T20:47:53.975Z,6.60
2018-01-22T20:50:21.463Z,6.50
2018-01-22T20:52:49.768Z,6.30
2018-01-22T20:55:17.240Z,6.20
2018-01-22T20:57:44.716Z,6.20
2018-01-22T21:00:19.340Z,6.30
2018-01-22T21:02:46.812Z,6.40
2018-01-22T21:05:14.285Z,6.40
2018-01-22T21:07:41.771Z,6.10
2018-01-22T21:10:10.060Z,6.00
2018-01-22T21:12:38.315Z,6.00
2018-01-22T21:15:06.626Z,6.00
2018-01-22T21:17:35.005Z,5.90
2018-01-22T21:20:02.479Z,6.20
2018-01-22T21:22:30.042Z,6.20
2018-01-22T21:24:58.353Z,6.20
2018-01-22T21:27:26.023Z,6.10
2018-01-22T21:29:54.291Z,5.90
2018-01-22T21:32:21.820Z,5.80
2018-01-22T21:34:49.295Z,5.80
2018-01-22T21:37:16.790Z,5.80
2018-01-22T21:39:45.140Z,5.70
2018-01-22T21:42:12.650Z,5.70
2018-01-22T21:44:40.179Z,5.80
2018-01-22T21:47:07.656Z,6.10
2018-01-22T21:49:35.895Z,5.90
2018-01-22T21:52:03.385Z,5.90
2018-01-22T21:54:31.620Z,5.60
2018-01-22T21:56:59.099Z,5.60
2018-01-22T21:59:26.585Z,5.80
2018-01-22T22:01:54.820Z,6.00
2018-01-22T22:04:22.320Z,5.90
2018-01-22T22:06:50.577Z,5.80
2018-01-22T22:09:18.061Z,5.80
2018-01-22T22:11:46.305Z,5.70
2018-01-22T22:14:13.796Z,5.70
2018-01-22T22:16:42.042Z,5.90
2018-01-22T22:19:09.519Z,5.80
2018-01-22T22:21:37.778Z,6.00
2018-01-22T22:24:05.247Z,5.90
2018-01-22T22:26:32.727Z,5.90
2018-01-22T22:29:00.997Z,5.70
2018-01-22T22:31:29.241Z,5.70
2018-01-22T22:33:56.721Z,5.60
2018-01-22T22:36:24.216Z,5.60
2018-01-22T22:38:51.690Z,5.80
2018-01-22T22:41:19.175Z,5.70
2018-01-22T22:43:46.675Z,5.50
2018-01-22T22:46:14.918Z,5.50
2018-01-22T22:48:42.392Z,5.50
2018-01-22T22:51:10.663Z,5.70
2018-01-22T22:53:38.136Z,5.70
2018-01-22T22:56:06.373Z,5.60
2018-01-22T22:58:33.871Z,5.60
2018-01-22T23:01:02.402Z,5.60
2018-01-22T23:03:30.467Z,5.60
2018-01-22T23:05:57.958Z,5.60
2018-01-22T23:08:25.455Z,5.20
2018-01-22T23:10:53.691Z,5.40
2018-01-22T23:13:21.188Z,5.40
2018-01-22T23:15:49.429Z,5.30
2018-01-22T23:18:16.903Z,5.20
2018-01-22T23:20:44.383Z,5.30
2018-01-22T23:23:12.624Z,5.50
2018-01-22T23:25:40.096Z,5.40
2018-01-22T23:28:07.591Z,5.50
2018-01-22T23:30:35.072Z,5.30
2018-01-22T23:33:02.540Z,5.20
2018-01-22T23:35:30.026Z,5.10
2018-01-22T23:37:57.505Z,5.10
2018-01-22T23:40:25.736Z,5.20
2018-01-22T23:42:53.228Z,5.20
2018-01-22T23:45:20.708Z,5.10
2018-01-22T23:47:48.946Z,5.20
2018-01-22T23:50:16.433Z,5.20
2018-01-22T23:52:44.707Z,5.10
2018-01-22T23:55:12.943Z,5.20
2018-01-22T23:57:40.430Z,5.10
